Current Weather

Palwaukee Municipal Arpt

Palwaukee Municipal Arpt, Illinois (KPWK)

Report from: Monday, May 23, 2022 1:52 AM CDT
Current time: Monday, May 23, 2022 2:25 AM CDT

Nearby weather
Weather history
Weather forecast

Temperature8.3°C (46.9°F)
Dew point5.0°C (41.0°F)
Winds Calm
Visibility10 mi. (16.1 km)
Clouds Sky clear
Altimeter30.38 in.Hg (1029 mB)
Relative humidity80 %
Density altitude-1,201 ft. (-366 m)
Sea-level pressure102.9 kPa (1029 mB, 30.38 in.Hg)
Remarks Fully automated report
Automated weather observing station with precipitation discriminator
Flight conditions Visual Meteorological Conditions
Raw dataKPWK 230652Z AUTO 00000KT 10SM CLR 08/05 A3038 RMK AO2 SLP288 T00830050
An error has occurred. This application may no longer respond until reloaded. Reload 🗙